logo dgac
Miércoles 24 de Julio del 2024
Buscar por aerodromo o helipuerto
Ingrese nombre de aeródromo, localidad o designador OACI:

Aeródromo: Guardiamarina Zañartu (PUB) (SCGZ)

Ubicación: Puerto Williams, XII Región, Chile (54º 55' 52'' S, 67º 37' 34'' W) Ver ubicación en el mapa

Pistas

Luces
Orientación Dimensión Pendiente Superficie Resistencia APCH THR RWY PAPI
08/26 1440 x 29 -1,50 ASPH PCN 33 F/A/X/T No No
Horas de operación HJ
Elevación 27 m / 88 ft
Otra Información Adm : D.G.A.C.
Uso : PUB
TEL JEFATURA (56-61) 2745513
ARO (56-61) 2745514
email : aro.williams@dgac.gob.cl


Otra información ver ver AIP-Chile Volumen I AD 3.9-15.11-P
CCCM/FCCV Descargar CCCM/FCCV
andera de Chile
Mapa de Guardiamarina Zañartu (PUB) (SCGZ)

Último METAR

METAR SCGZ 232000Z 30015KT 9999 FEW036 SCT080 08/02 Q0973

Último TAF

TAF SCGZ 231021Z 2312/2400 10005KT 9000 SCT035 TN01/2400Z TX06/2316Z BECMG 2312/2400 35015G25KT TEMPO 2314/2318 30025G35KT 6000 SHRA -SHRASN SCT015 BKN025 BECMG 2319/2321 29010KT BECMG 2322/2400 25035G45KT

Últimas fotos cámaras

Imagen aerodromo Guardiamarina Zañartu (PUB) (SCGZ) Este tomada el 24-07-2024 03:22:21 Imagen aerodromo Guardiamarina Zañartu (PUB) (SCGZ) Oeste tomada el 24-07-2024 03:22:04

Último NOTAM

C2934/24 NOTAMN Q)SCCZ/QMNLX/IV/NBO/A/000/999/5456S06738W005 A)SCGZ B)2407051747 C)2410022359 E)APN CTN DEBIDO A WIP SOBRE APN COSTADO W WO LGT